Time;durP1;ratioP1;P1;durP2;ratioP2;P2;SDS_P1;SDS_P2;PMS_P1;PMS_P2;Temp;Humidity;BMP_temperature;BMP_pressure;BME280_temperature;BME280_humidity;BME280_pressure;Samples;Min_cycle;Max_cycle;Signal;HPM_P1;HPM_P2
2024/01/14 00:02:28;;;;;;;;;;;17.30;57.70;;;;;;7320500;19;9219;-65
2024/01/14 00:04:57;;;;;;;;;;;17.30;57.70;;;;;;7317769;19;9457;-66
2024/01/14 00:07:27;;;;;;;;;;;17.20;57.60;;;;;;7318839;19;9275;-65
2024/01/14 00:09:57;;;;;;;;;;;17.20;57.70;;;;;;7319041;19;9207;-65
2024/01/14 00:12:29;;;;;;;;;;;17.20;57.70;;;;;;7320106;19;9176;-66
2024/01/14 00:14:58;;;;;;;;;;;17.10;57.70;;;;;;7318868;19;9356;-65
2024/01/14 00:17:28;;;;;;;;;;;17.10;57.80;;;;;;7319517;19;9186;-66
2024/01/14 00:19:57;;;;;;;;;;;17.10;57.90;;;;;;7318141;19;9171;-65
2024/01/14 00:22:26;;;;;;;;;;;17.10;57.90;;;;;;7316736;19;9481;-65
2024/01/14 00:24:55;;;;;;;;;;;17.00;57.90;;;;;;7319163;19;9337;-66
2024/01/14 00:27:24;;;;;;;;;;;17.00;58.00;;;;;;7318308;19;9216;-66
2024/01/14 00:29:57;;;;;;;;;;;16.90;58.00;;;;;;7318554;19;9245;-65
2024/01/14 00:32:26;;;;;;;;;;;16.90;58.10;;;;;;7318529;19;9299;-65
2024/01/14 00:34:55;;;;;;;;;;;16.90;58.30;;;;;;7315606;19;9129;-65
2024/01/14 00:37:44;;;;;;;;;;;16.80;58.40;;;;;;7313879;19;10386;-65
2024/01/14 00:40:14;;;;;;;;;;;16.80;58.30;;;;;;7318536;19;9239;-66
2024/01/14 00:42:43;;;;;;;;;;;16.80;58.30;;;;;;7318860;19;10136;-65
2024/01/14 00:45:21;;;;;;;;;;;16.70;58.40;;;;;;7316994;19;9492;-66
2024/01/14 00:47:50;;;;;;;;;;;16.70;58.40;;;;;;7318374;19;9568;-65
2024/01/14 00:50:21;;;;;;;;;;;16.70;58.50;;;;;;7316865;19;9292;-65
2024/01/14 00:52:50;;;;;;;;;;;16.60;58.50;;;;;;7317907;19;9259;-66
2024/01/14 00:55:20;;;;;;;;;;;16.60;58.60;;;;;;7316167;19;9484;-65
2024/01/14 00:57:49;;;;;;;;;;;16.60;58.60;;;;;;7318298;19;10558;-66
2024/01/14 01:00:21;;;;;;;;;;;16.60;58.70;;;;;;7315361;19;9484;-65
2024/01/14 01:02:51;;;;;;;;;;;16.50;58.70;;;;;;7318255;19;9163;-66
2024/01/14 01:05:39;;;;;;;;;;;16.50;58.80;;;;;;7316477;19;10242;-65
2024/01/14 01:08:09;;;;;;;;;;;16.40;58.80;;;;;;7316585;19;10624;-66
2024/01/14 01:10:42;;;;;;;;;;;16.40;58.90;;;;;;7318637;19;9175;-65
2024/01/14 01:13:16;;;;;;;;;;;16.40;58.90;;;;;;7323438;19;9124;-65
2024/01/14 01:15:48;;;;;;;;;;;16.40;59.00;;;;;;7323708;19;9479;-66
2024/01/14 01:18:20;;;;;;;;;;;16.40;59.10;;;;;;7324350;19;9216;-65
2024/01/14 01:20:51;;;;;;;;;;;16.30;59.00;;;;;;7322201;19;9569;-65
2024/01/14 01:23:20;;;;;;;;;;;16.30;59.00;;;;;;7324309;19;9570;-65
2024/01/14 01:25:49;;;;;;;;;;;16.30;59.00;;;;;;7323271;19;9529;-65
2024/01/14 01:28:18;;;;;;;;;;;16.40;59.00;;;;;;7323775;19;9296;-65
2024/01/14 01:30:50;;;;;;;;;;;16.40;59.00;;;;;;7322643;19;9314;-65
2024/01/14 01:33:19;;;;;;;;;;;16.40;58.90;;;;;;7322862;19;10233;-65
2024/01/14 01:35:48;;;;;;;;;;;16.50;59.50;;;;;;7322031;19;9241;-65
2024/01/14 01:38:17;;;;;;;;;;;16.50;58.70;;;;;;7322950;19;9638;-65
2024/01/14 01:40:47;;;;;;;;;;;16.60;58.80;;;;;;7322163;19;10282;-65
2024/01/14 01:43:16;;;;;;;;;;;16.60;58.60;;;;;;7323510;19;9234;-65
2024/01/14 01:46:05;;;;;;;;;;;16.70;58.60;;;;;;7322799;19;10350;-65
2024/01/14 01:48:34;;;;;;;;;;;16.80;58.50;;;;;;7321737;19;9389;-65
2024/01/14 01:51:04;;;;;;;;;;;16.90;58.50;;;;;;7322216;19;9245;-65
2024/01/14 01:53:33;;;;;;;;;;;16.90;58.30;;;;;;7322479;19;9577;-66
2024/01/14 01:56:05;;;;;;;;;;;17.00;58.30;;;;;;7322096;19;9317;-65
2024/01/14 01:58:34;;;;;;;;;;;17.00;58.20;;;;;;7321114;19;9250;-65
2024/01/14 02:01:06;;;;;;;;;;;17.10;58.20;;;;;;7323391;19;9631;-65
2024/01/14 02:03:36;;;;;;;;;;;17.20;58.10;;;;;;7322170;19;9308;-65
2024/01/14 02:06:08;;;;;;;;;;;17.20;58.10;;;;;;7323421;19;9259;-65
2024/01/14 02:08:38;;;;;;;;;;;17.20;58.00;;;;;;7322921;19;10410;-65
2024/01/14 02:11:07;;;;;;;;;;;17.20;57.90;;;;;;7321756;19;9141;-65
2024/01/14 02:13:44;;;;;;;;;;;17.20;58.00;;;;;;7323780;19;9308;-65
2024/01/14 02:16:34;;;;;;;;;;;17.30;57.90;;;;;;7321486;19;10716;-65
2024/01/14 02:19:04;;;;;;;;;;;17.30;57.90;;;;;;7323003;19;9567;-65
2024/01/14 02:21:43;;;;;;;;;;;17.30;57.90;;;;;;7321656;19;9181;-65
2024/01/14 02:24:26;;;;;;;;;;;17.30;57.70;;;;;;7319362;19;9493;-65
2024/01/14 02:27:11;;;;;;;;;;;17.30;57.70;;;;;;7322267;19;11167;-65
2024/01/14 02:29:59;;;;;;;;;;;17.20;57.70;;;;;;7321267;19;9291;-65
2024/01/14 02:32:28;;;;;;;;;;;17.20;57.70;;;;;;7321991;19;10321;-66
2024/01/14 02:34:58;;;;;;;;;;;17.20;57.80;;;;;;7321866;19;9210;-65
2024/01/14 02:37:27;;;;;;;;;;;17.20;57.80;;;;;;7319954;19;9235;-65
2024/01/14 02:40:10;;;;;;;;;;;17.10;57.80;;;;;;7322001;19;9317;-65
2024/01/14 02:42:46;;;;;;;;;;;17.10;57.80;;;;;;7320621;19;10963;-65
2024/01/14 02:45:16;;;;;;;;;;;17.00;57.80;;;;;;7319615;19;9482;-65
2024/01/14 02:47:45;;;;;;;;;;;17.00;57.90;;;;;;7322184;19;9245;-66
2024/01/14 02:50:14;;;;;;;;;;;17.00;57.90;;;;;;7320100;19;9261;-65
2024/01/14 02:53:03;;;;;;;;;;;16.90;58.00;;;;;;7320297;19;9496;-65
2024/01/14 02:55:54;;;;;;;;;;;16.90;58.10;;;;;;7319785;19;9557;-66
2024/01/14 02:58:24;;;;;;;;;;;16.90;58.20;;;;;;7319311;19;9454;-66
2024/01/14 03:00:54;;;;;;;;;;;16.80;58.20;;;;;;7320316;19;9221;-66
2024/01/14 03:03:23;;;;;;;;;;;16.80;58.20;;;;;;7320234;19;9230;-65
2024/01/14 03:06:02;;;;;;;;;;;16.80;58.30;;;;;;7320712;19;9271;-65
2024/01/14 03:08:32;;;;;;;;;;;16.70;58.30;;;;;;7319544;19;9253;-65
2024/01/14 03:11:04;;;;;;;;;;;16.70;58.40;;;;;;7319214;19;9534;-65
2024/01/14 03:13:33;;;;;;;;;;;16.70;58.50;;;;;;7321467;19;9186;-65
2024/01/14 03:16:22;;;;;;;;;;;16.60;58.40;;;;;;7316513;19;9536;-66
2024/01/14 03:18:51;;;;;;;;;;;16.60;58.50;;;;;;7320822;19;9122;-65
2024/01/14 03:21:20;;;;;;;;;;;16.50;58.60;;;;;;7320300;19;9482;-65
2024/01/14 03:23:51;;;;;;;;;;;16.50;58.60;;;;;;7320289;19;9287;-65
2024/01/14 03:26:22;;;;;;;;;;;16.50;58.70;;;;;;7319778;19;9273;-65
2024/01/14 03:28:52;;;;;;;;;;;16.40;58.60;;;;;;7320012;19;9472;-65
2024/01/14 03:31:41;;;;;;;;;;;16.50;58.80;;;;;;7317400;19;9491;-65
2024/01/14 03:34:30;;;;;;;;;;;16.40;58.90;;;;;;7316961;19;9570;-66
2024/01/14 03:36:59;;;;;;;;;;;16.40;58.90;;;;;;7319017;19;9585;-65
2024/01/14 03:39:28;;;;;;;;;;;16.40;58.90;;;;;;7318350;19;9233;-65
2024/01/14 03:42:01;;;;;;;;;;;16.40;58.90;;;;;;7318852;19;9468;-65
2024/01/14 03:44:30;;;;;;;;;;;16.40;59.00;;;;;;7319750;19;9305;-65
2024/01/14 03:46:59;;;;;;;;;;;16.30;58.90;;;;;;7312979;19;9483;-65
2024/01/14 03:49:28;;;;;;;;;;;16.30;58.90;;;;;;7319811;19;9226;-65
2024/01/14 03:51:57;;;;;;;;;;;16.40;58.90;;;;;;7317529;19;9384;-65
2024/01/14 03:54:26;;;;;;;;;;;16.40;58.80;;;;;;7318841;19;9187;-65
2024/01/14 03:56:55;;;;;;;;;;;16.40;58.70;;;;;;7318955;19;9185;-65
2024/01/14 03:59:28;;;;;;;;;;;16.50;58.60;;;;;;7320169;19;9262;-65
2024/01/14 04:01:57;;;;;;;;;;;16.50;58.60;;;;;;7317249;19;9477;-65
2024/01/14 04:04:26;;;;;;;;;;;16.60;58.60;;;;;;7319794;19;10664;-65
2024/01/14 04:06:54;;;;;;;;;;;16.70;58.50;;;;;;7317473;19;9170;-65
2024/01/14 04:09:24;;;;;;;;;;;16.70;58.40;;;;;;7319789;19;9230;-65
2024/01/14 04:11:53;;;;;;;;;;;16.80;58.40;;;;;;7318317;19;9202;-65
2024/01/14 04:14:21;;;;;;;;;;;16.80;58.30;;;;;;7319466;19;9502;-65
2024/01/14 04:17:08;;;;;;;;;;;16.90;58.30;;;;;;7317376;19;9436;-65
2024/01/14 04:19:46;;;;;;;;;;;17.00;58.20;;;;;;7317606;19;9310;-66
2024/01/14 04:22:32;;;;;;;;;;;17.00;58.10;;;;;;7318249;19;9202;-65
2024/01/14 04:25:09;;;;;;;;;;;17.10;58.10;;;;;;7319693;19;9182;-65
2024/01/14 04:27:46;;;;;;;;;;;17.10;58.00;;;;;;7318891;19;9481;-65
2024/01/14 04:30:16;;;;;;;;;;;17.20;58.00;;;;;;7319392;19;9535;-65
2024/01/14 04:32:47;;;;;;;;;;;17.20;57.80;;;;;;7318494;19;9230;-65
2024/01/14 04:35:36;;;;;;;;;;;17.20;57.90;;;;;;7315581;19;9555;-65
2024/01/14 04:38:06;;;;;;;;;;;17.30;57.80;;;;;;7319168;19;9270;-65
2024/01/14 04:40:36;;;;;;;;;;;17.20;57.70;;;;;;7316913;19;9153;-65
2024/01/14 04:43:15;;;;;;;;;;;17.20;57.70;;;;;;7318450;19;9431;-65
2024/01/14 04:45:47;;;;;;;;;;;17.20;57.70;;;;;;7318682;19;10110;-65
2024/01/14 04:48:19;;;;;;;;;;;17.20;57.60;;;;;;7325081;19;9468;-66
2024/01/14 04:51:08;;;;;;;;;;;17.20;57.60;;;;;;7323353;19;10189;-65
2024/01/14 04:53:56;;;;;;;;;;;17.20;57.50;;;;;;7322749;19;9504;-65
2024/01/14 04:56:46;;;;;;;;;;;17.20;57.60;;;;;;7319919;19;9194;-65
2024/01/14 04:59:36;;;;;;;;;;;17.10;57.60;;;;;;7321614;19;9478;-65
2024/01/14 05:02:25;;;;;;;;;;;17.10;57.70;;;;;;7323605;19;9559;-65
2024/01/14 05:04:58;;;;;;;;;;;17.00;57.70;;;;;;7323691;19;9475;-66
2024/01/14 05:07:27;;;;;;;;;;;17.00;57.70;;;;;;7324800;19;9133;-65
2024/01/14 05:09:59;;;;;;;;;;;17.00;57.70;;;;;;7322093;19;9654;-66
2024/01/14 05:12:47;;;;;;;;;;;17.00;57.80;;;;;;7321241;19;9421;-65
2024/01/14 05:15:18;;;;;;;;;;;16.90;57.90;;;;;;7324469;19;9254;-65
2024/01/14 05:17:47;;;;;;;;;;;16.90;57.90;;;;;;7323734;19;9217;-65
2024/01/14 05:20:19;;;;;;;;;;;16.90;58.00;;;;;;7323797;19;10216;-66
2024/01/14 05:22:48;;;;;;;;;;;16.80;58.10;;;;;;7323546;19;9136;-65
2024/01/14 05:25:17;;;;;;;;;;;16.80;58.10;;;;;;7323250;19;9468;-65
2024/01/14 05:28:07;;;;;;;;;;;16.70;58.10;;;;;;7322500;19;9448;-65
2024/01/14 05:30:36;;;;;;;;;;;16.70;58.20;;;;;;7324103;19;9282;-65
2024/01/14 05:33:06;;;;;;;;;;;16.70;58.30;;;;;;7324983;19;9128;-66
2024/01/14 05:35:43;;;;;;;;;;;16.70;58.30;;;;;;7325553;19;9102;-65
2024/01/14 05:38:19;;;;;;;;;;;16.60;58.30;;;;;;7327985;19;9249;-65
2024/01/14 05:41:07;;;;;;;;;;;16.60;58.40;;;;;;7324980;19;9269;-66
2024/01/14 05:43:39;;;;;;;;;;;16.50;58.30;;;;;;7327729;19;9182;-65
2024/01/14 05:46:08;;;;;;;;;;;16.50;58.40;;;;;;7327590;19;9261;-65
2024/01/14 05:48:41;;;;;;;;;;;16.50;58.50;;;;;;7327028;19;9572;-66
2024/01/14 05:51:14;;;;;;;;;;;16.40;58.50;;;;;;7323864;19;9264;-65
2024/01/14 05:53:42;;;;;;;;;;;16.40;58.60;;;;;;7323133;19;9132;-65
2024/01/14 05:56:12;;;;;;;;;;;16.40;58.60;;;;;;7324065;19;9185;-65
2024/01/14 05:58:43;;;;;;;;;;;16.40;58.70;;;;;;7323263;19;9318;-65
2024/01/14 06:01:14;;;;;;;;;;;16.40;58.80;;;;;;7321997;19;9392;-65
2024/01/14 06:03:48;;;;;;;;;;;16.30;58.80;;;;;;7323896;19;9463;-65
2024/01/14 06:06:19;;;;;;;;;;;16.40;58.80;;;;;;7321738;19;9230;-65
2024/01/14 06:08:49;;;;;;;;;;;16.40;58.80;;;;;;7323939;19;9281;-66
2024/01/14 06:11:20;;;;;;;;;;;16.40;58.70;;;;;;7321747;19;10569;-65
2024/01/14 06:13:51;;;;;;;;;;;16.40;58.60;;;;;;7322728;19;9183;-65
2024/01/14 06:16:21;;;;;;;;;;;16.50;58.60;;;;;;7321264;19;9598;-65
2024/01/14 06:18:50;;;;;;;;;;;16.50;58.40;;;;;;7322092;19;9483;-65
2024/01/14 06:21:22;;;;;;;;;;;16.60;58.40;;;;;;7321143;19;9205;-66
2024/01/14 06:23:56;;;;;;;;;;;16.60;58.40;;;;;;7321880;19;10405;-65
2024/01/14 06:26:25;;;;;;;;;;;16.70;58.30;;;;;;7322038;19;10006;-65
2024/01/14 06:28:54;;;;;;;;;;;16.80;58.30;;;;;;7320646;19;9276;-65
2024/01/14 06:31:24;;;;;;;;;;;16.80;58.20;;;;;;7320645;19;10261;-65
2024/01/14 06:33:53;;;;;;;;;;;16.90;58.10;;;;;;7320866;19;9283;-65
2024/01/14 06:36:24;;;;;;;;;;;16.90;58.10;;;;;;7320473;19;9233;-68
2024/01/14 06:38:53;;;;;;;;;;;17.00;58.00;;;;;;7320328;19;9124;-66
2024/01/14 06:41:23;;;;;;;;;;;17.10;58.00;;;;;;7320860;19;9214;-65
2024/01/14 06:43:52;;;;;;;;;;;17.10;57.90;;;;;;7320215;19;9425;-66
2024/01/14 06:46:21;;;;;;;;;;;17.20;57.90;;;;;;7320495;19;10410;-65
2024/01/14 06:49:00;;;;;;;;;;;17.20;57.80;;;;;;7320472;19;9581;-65
2024/01/14 06:51:34;;;;;;;;;;;17.20;57.70;;;;;;7319816;19;9401;-65
2024/01/14 06:54:08;;;;;;;;;;;17.20;57.70;;;;;;7320990;19;9701;-65
2024/01/14 06:56:45;;;;;;;;;;;17.20;57.70;;;;;;7317712;19;11387;-66
2024/01/14 06:59:34;;;;;;;;;;;17.30;57.70;;;;;;7319920;19;9470;-65
2024/01/14 07:02:04;;;;;;;;;;;17.20;57.60;;;;;;7321826;19;9158;-65
2024/01/14 07:04:54;;;;;;;;;;;17.20;57.50;;;;;;7318769;19;9221;-66
2024/01/14 07:07:45;;;;;;;;;;;17.20;57.50;;;;;;7319395;19;10484;-65
2024/01/14 07:10:35;;;;;;;;;;;17.20;57.50;;;;;;7318286;19;9246;-65
2024/01/14 07:13:24;;;;;;;;;;;17.20;57.40;;;;;;7320275;19;9281;-65
2024/01/14 07:15:55;;;;;;;;;;;17.20;57.50;;;;;;7319065;19;9256;-66
2024/01/14 07:18:25;;;;;;;;;;;17.10;57.50;;;;;;7317729;19;9527;-66
2024/01/14 07:20:57;;;;;;;;;;;17.10;57.60;;;;;;7319257;19;9183;-65
2024/01/14 07:23:31;;;;;;;;;;;17.00;57.50;;;;;;7319337;19;9156;-65
2024/01/14 07:26:01;;;;;;;;;;;17.00;57.60;;;;;;7317835;19;10322;-66
2024/01/14 07:28:33;;;;;;;;;;;17.00;57.70;;;;;;7320750;19;9137;-65
2024/01/14 07:31:05;;;;;;;;;;;16.90;57.70;;;;;;7319226;19;9687;-66
2024/01/14 07:33:39;;;;;;;;;;;16.90;57.80;;;;;;7320822;19;9196;-65
2024/01/14 07:36:29;;;;;;;;;;;16.90;57.90;;;;;;7318155;19;9560;-65
2024/01/14 07:39:02;;;;;;;;;;;16.80;57.90;;;;;;7319875;19;9287;-65
2024/01/14 07:41:50;;;;;;;;;;;16.80;58.00;;;;;;7317241;19;9350;-65
2024/01/14 07:44:20;;;;;;;;;;;16.80;58.00;;;;;;7319974;19;9182;-66
2024/01/14 07:47:01;;;;;;;;;;;16.70;58.10;;;;;;7318397;19;9169;-66
2024/01/14 07:49:48;;;;;;;;;;;16.70;58.80;;;;;;7320463;19;9287;-65
2024/01/14 07:52:17;;;;;;;;;;;16.60;58.20;;;;;;7320286;19;9209;-66
2024/01/14 07:55:09;;;;;;;;;;;16.60;58.30;;;;;;7318135;19;9401;-66
2024/01/14 07:57:58;;;;;;;;;;;16.50;58.30;;;;;;7316610;19;9242;-66
2024/01/14 08:00:28;;;;;;;;;;;16.50;58.40;;;;;;7318503;19;9215;-65
2024/01/14 08:03:17;;;;;;;;;;;16.50;58.50;;;;;;7316447;19;9290;-65
2024/01/14 08:05:47;;;;;;;;;;;16.50;58.50;;;;;;7319119;19;9238;-65
2024/01/14 08:08:36;;;;;;;;;;;16.40;58.50;;;;;;7318243;19;9316;-65
2024/01/14 08:11:27;;;;;;;;;;;16.40;58.60;;;;;;7316367;19;9284;-65
2024/01/14 08:14:16;;;;;;;;;;;16.40;58.70;;;;;;7317899;19;9534;-66
2024/01/14 08:17:05;;;;;;;;;;;16.40;58.70;;;;;;7316560;19;9182;-65
2024/01/14 08:19:54;;;;;;;;;;;16.30;58.70;;;;;;7317240;19;9564;-65
2024/01/14 08:22:25;;;;;;;;;;;16.40;59.50;;;;;;7324008;19;9389;-65
2024/01/14 08:25:07;;;;;;;;;;;16.40;58.80;;;;;;7325227;19;9337;-65
2024/01/14 08:27:46;;;;;;;;;;;16.40;58.60;;;;;;7324848;19;9261;-65
2024/01/14 08:30:19;;;;;;;;;;;16.40;58.60;;;;;;7325268;19;9223;-65
2024/01/14 08:32:55;;;;;;;;;;;16.50;58.50;;;;;;7325868;19;9401;-65
2024/01/14 08:35:31;;;;;;;;;;;16.50;58.40;;;;;;7324045;19;9306;-65
2024/01/14 08:38:03;;;;;;;;;;;16.60;58.50;;;;;;7325473;19;9181;-65
2024/01/14 08:40:45;;;;;;;;;;;16.60;58.50;;;;;;7322644;19;9205;-65
2024/01/14 08:43:17;;;;;;;;;;;16.70;58.40;;;;;;7325965;19;9454;-65
2024/01/14 08:45:48;;;;;;;;;;;16.70;58.20;;;;;;7323660;19;10538;-65
2024/01/14 08:48:18;;;;;;;;;;;16.80;58.20;;;;;;7325023;19;9264;-65
2024/01/14 08:50:47;;;;;;;;;;;16.90;58.10;;;;;;7324062;19;9513;-65
2024/01/14 08:53:36;;;;;;;;;;;16.90;58.00;;;;;;7323582;19;9590;-65
2024/01/14 08:56:09;;;;;;;;;;;17.00;58.00;;;;;;7324755;19;9198;-65
2024/01/14 08:58:44;;;;;;;;;;;17.10;58.00;;;;;;7323635;19;10687;-65
2024/01/14 09:01:14;;;;;;;;;;;17.10;57.80;;;;;;7324277;19;9811;-65
2024/01/14 09:03:45;;;;;;;;;;;17.20;57.90;;;;;;7324569;19;9661;-66
2024/01/14 09:06:15;;;;;;;;;;;17.20;57.80;;;;;;7323547;19;9236;-66
2024/01/14 09:08:47;;;;;;;;;;;17.20;57.70;;;;;;7323850;19;9484;-65
2024/01/14 09:11:36;;;;;;;;;;;17.20;57.70;;;;;;7322569;19;9289;-65
2024/01/14 09:14:14;;;;;;;;;;;17.30;57.70;;;;;;7324226;19;9358;-65
2024/01/14 09:16:48;;;;;;;;;;;17.30;57.70;;;;;;7323939;19;10884;-65
2024/01/14 09:19:17;;;;;;;;;;;17.30;57.70;;;;;;7323651;19;9148;-65
2024/01/14 09:21:48;;;;;;;;;;;17.30;57.60;;;;;;7323868;19;9552;-65
2024/01/14 09:24:37;;;;;;;;;;;17.20;57.50;;;;;;7321403;19;9249;-65
2024/01/14 09:27:07;;;;;;;;;;;17.30;57.60;;;;;;7323752;19;9571;-65
2024/01/14 09:29:58;;;;;;;;;;;17.20;57.50;;;;;;7321251;19;10589;-65
2024/01/14 09:32:27;;;;;;;;;;;17.20;57.60;;;;;;7322481;19;9234;-65
2024/01/14 09:34:57;;;;;;;;;;;17.20;57.60;;;;;;7322760;19;9325;-65
2024/01/14 09:37:26;;;;;;;;;;;17.20;57.60;;;;;;7322286;19;9241;-65
2024/01/14 09:39:55;;;;;;;;;;;17.20;57.70;;;;;;7323174;19;10490;-65
2024/01/14 09:42:30;;;;;;;;;;;17.10;57.70;;;;;;7318956;19;9192;-65
2024/01/14 09:45:04;;;;;;;;;;;17.10;57.70;;;;;;7322353;19;10789;-65
2024/01/14 09:47:35;;;;;;;;;;;17.00;57.70;;;;;;7321038;19;9685;-65
2024/01/14 09:50:04;;;;;;;;;;;17.00;57.80;;;;;;7322150;19;9384;-65
2024/01/14 09:52:35;;;;;;;;;;;17.00;58.00;;;;;;7323357;19;9306;-66
2024/01/14 09:55:04;;;;;;;;;;;16.90;58.00;;;;;;7322079;19;9414;-65
2024/01/14 09:57:35;;;;;;;;;;;16.90;58.00;;;;;;7322954;19;10372;-65
2024/01/14 10:00:08;;;;;;;;;;;16.90;58.20;;;;;;7321229;19;9481;-65
2024/01/14 10:02:38;;;;;;;;;;;16.80;58.10;;;;;;7323850;19;9315;-66
2024/01/14 10:05:08;;;;;;;;;;;16.80;58.20;;;;;;7322888;19;9131;-66
2024/01/14 10:07:39;;;;;;;;;;;16.80;58.30;;;;;;7322501;19;10696;-65
2024/01/14 10:10:10;;;;;;;;;;;16.80;58.30;;;;;;7321427;19;9496;-65
2024/01/14 10:12:39;;;;;;;;;;;16.70;58.30;;;;;;7321383;19;9173;-65
2024/01/14 10:15:14;;;;;;;;;;;16.70;59.10;;;;;;7322047;19;9214;-66
2024/01/14 10:18:03;;;;;;;;;;;16.70;58.50;;;;;;7320339;19;9274;-66
2024/01/14 10:20:31;;;;;;;;;;;16.70;58.50;;;;;;7321581;19;9159;-65
2024/01/14 10:22:59;;;;;;;;;;;16.70;58.50;;;;;;7322280;19;9608;-65
2024/01/14 10:25:29;;;;;;;;;;;16.60;58.50;;;;;;7322005;19;9218;-65
2024/01/14 10:27:58;;;;;;;;;;;16.60;58.60;;;;;;7322458;19;9257;-65
2024/01/14 10:30:29;;;;;;;;;;;16.60;58.60;;;;;;7321662;19;9286;-65
2024/01/14 10:32:58;;;;;;;;;;;16.60;58.70;;;;;;7322261;19;9549;-65
2024/01/14 10:35:25;;;;;;;;;;;16.60;58.70;;;;;;7321381;19;9198;-65
2024/01/14 10:37:54;;;;;;;;;;;16.60;58.70;;;;;;7322573;19;9311;-65
2024/01/14 10:40:24;;;;;;;;;;;16.60;59.40;;;;;;7317744;19;9693;-66
2024/01/14 10:42:53;;;;;;;;;;;16.50;58.70;;;;;;7321453;19;9538;-65
2024/01/14 10:45:22;;;;;;;;;;;16.60;58.80;;;;;;7318205;19;10375;-65
2024/01/14 10:47:59;;;;;;;;;;;16.50;58.70;;;;;;7321445;19;9189;-65
2024/01/14 10:50:30;;;;;;;;;;;16.50;58.80;;;;;;7320302;19;9468;-65
2024/01/14 10:53:07;;;;;;;;;;;16.50;59.10;;;;;;7322045;19;9408;-65
2024/01/14 10:55:43;;;;;;;;;;;16.50;58.80;;;;;;7322068;19;9271;-65
2024/01/14 10:58:26;;;;;;;;;;;16.50;58.80;;;;;;7320026;19;9309;-65
2024/01/14 11:01:01;;;;;;;;;;;16.50;58.80;;;;;;7321348;19;9260;-65
2024/01/14 11:03:34;;;;;;;;;;;16.50;58.80;;;;;;7320440;19;10297;-65
2024/01/14 11:06:05;;;;;;;;;;;16.50;58.90;;;;;;7320516;19;9261;-65
2024/01/14 11:08:36;;;;;;;;;;;16.50;58.80;;;;;;7321724;19;9281;-65
2024/01/14 11:11:07;;;;;;;;;;;16.50;58.90;;;;;;7319334;19;9229;-65
2024/01/14 11:13:49;;;;;;;;;;;16.50;58.80;;;;;;7321008;19;9435;-65
2024/01/14 11:16:25;;;;;;;;;;;16.50;58.90;;;;;;7320648;19;9180;-65
2024/01/14 11:19:03;;;;;;;;;;;16.50;59.40;;;;;;7321571;19;9474;-65
2024/01/14 11:22:03;;;;;;;;;;;16.50;58.80;;;;;;7320857;19;9484;-65
2024/01/14 11:24:32;;;;;;;;;;;16.50;58.90;;;;;;7319001;19;9281;-65
2024/01/14 11:27:02;;;;;;;;;;;16.50;59.00;;;;;;7321577;19;9262;-65
2024/01/14 11:29:36;;;;;;;;;;;16.50;58.90;;;;;;7321877;19;9261;-65
2024/01/14 11:32:09;;;;;;;;;;;16.60;59.00;;;;;;7321817;19;10910;-65
2024/01/14 11:35:02;;;;;;;;;;;16.60;59.00;;;;;;7325171;19;9137;-66
2024/01/14 11:37:51;;;;;;;;;;;16.60;59.00;;;;;;7319779;19;9318;-65
2024/01/14 11:40:30;;;;;;;;;;;16.60;58.90;;;;;;7318981;19;9364;-65
2024/01/14 11:43:04;;;;;;;;;;;16.60;58.90;;;;;;7318586;19;9542;-65
2024/01/14 11:45:43;;;;;;;;;;;16.60;58.90;;;;;;7318773;19;9698;-65
2024/01/14 11:48:14;;;;;;;;;;;16.60;58.90;;;;;;7319866;19;10216;-65
2024/01/14 11:50:50;;;;;;;;;;;16.70;58.80;;;;;;7319085;19;9435;-65
2024/01/14 11:53:20;;;;;;;;;;;16.60;58.70;;;;;;7319641;19;9561;-65
2024/01/14 11:55:52;;;;;;;;;;;16.60;58.80;;;;;;7319511;19;9222;-66
2024/01/14 11:58:23;;;;;;;;;;;16.60;58.80;;;;;;7317987;19;9176;-65
2024/01/14 12:00:54;;;;;;;;;;;16.60;58.90;;;;;;7319669;19;9364;-65
2024/01/14 12:03:23;;;;;;;;;;;16.60;58.80;;;;;;7319525;19;9459;-65
2024/01/14 12:05:54;;;;;;;;;;;16.50;58.80;;;;;;7320119;19;9278;-65
2024/01/14 12:08:23;;;;;;;;;;;16.50;58.90;;;;;;7318207;19;9329;-65
2024/01/14 12:10:53;;;;;;;;;;;16.50;58.90;;;;;;7318696;19;9331;-65
2024/01/14 12:13:22;;;;;;;;;;;16.50;58.90;;;;;;7319382;19;10638;-65
2024/01/14 12:15:51;;;;;;;;;;;16.50;58.90;;;;;;7318074;19;9146;-65
2024/01/14 12:18:20;;;;;;;;;;;16.40;59.00;;;;;;7320264;19;9286;-65
2024/01/14 12:20:49;;;;;;;;;;;16.50;59.00;;;;;;7317580;19;9491;-65
2024/01/14 12:23:21;;;;;;;;;;;16.40;59.00;;;;;;7318782;19;9172;-65
2024/01/14 12:25:50;;;;;;;;;;;16.50;59.10;;;;;;7319032;19;9298;-65
2024/01/14 12:28:20;;;;;;;;;;;16.50;59.00;;;;;;7319888;19;9194;-65
2024/01/14 12:30:49;;;;;;;;;;;16.50;59.00;;;;;;7318625;19;9614;-65
2024/01/14 12:33:18;;;;;;;;;;;16.50;58.90;;;;;;7318155;19;9302;-65
2024/01/14 12:35:47;;;;;;;;;;;16.60;58.90;;;;;;7318013;19;9495;-65
2024/01/14 12:38:16;;;;;;;;;;;16.60;58.80;;;;;;7318682;19;9447;-65
2024/01/14 12:40:48;;;;;;;;;;;16.70;58.80;;;;;;7317777;19;9338;-65
2024/01/14 12:43:18;;;;;;;;;;;16.80;58.70;;;;;;7318856;19;9481;-65
2024/01/14 12:45:51;;;;;;;;;;;16.80;58.70;;;;;;7317250;19;9179;-65
2024/01/14 12:48:25;;;;;;;;;;;16.90;58.60;;;;;;7318138;19;9300;-65
2024/01/14 12:50:58;;;;;;;;;;;16.90;58.50;;;;;;7317868;19;9813;-65
2024/01/14 12:53:29;;;;;;;;;;;17.00;58.50;;;;;;7317599;19;9517;-65
2024/01/14 12:56:15;;;;;;;;;;;17.00;58.40;;;;;;7319635;19;9251;-65
2024/01/14 12:58:44;;;;;;;;;;;17.10;58.40;;;;;;7316679;19;9483;-65
2024/01/14 13:01:13;;;;;;;;;;;17.10;58.30;;;;;;7317388;19;10658;-65
2024/01/14 13:03:42;;;;;;;;;;;17.20;58.30;;;;;;7318297;19;10353;-65
2024/01/14 13:06:11;;;;;;;;;;;17.20;58.20;;;;;;7313907;19;10446;-65
2024/01/14 13:08:41;;;;;;;;;;;17.20;58.20;;;;;;7324205;19;9338;-65
2024/01/14 13:11:13;;;;;;;;;;;17.20;58.10;;;;;;7322796;19;9443;-65
2024/01/14 13:13:42;;;;;;;;;;;17.20;58.10;;;;;;7325498;19;9501;-65
2024/01/14 13:16:11;;;;;;;;;;;17.30;58.10;;;;;;7323871;19;10134;-65
2024/01/14 13:18:40;;;;;;;;;;;17.30;58.00;;;;;;7324191;19;9261;-65
2024/01/14 13:21:09;;;;;;;;;;;17.20;57.90;;;;;;7321747;19;9215;-65
2024/01/14 13:23:38;;;;;;;;;;;17.20;57.90;;;;;;7323195;19;9238;-65
2024/01/14 13:26:07;;;;;;;;;;;17.20;58.00;;;;;;7323511;19;9259;-65
2024/01/14 13:28:40;;;;;;;;;;;17.20;58.00;;;;;;7324388;19;9294;-65
2024/01/14 13:31:09;;;;;;;;;;;17.20;58.00;;;;;;7323728;19;9280;-65
2024/01/14 13:33:38;;;;;;;;;;;17.10;58.00;;;;;;7322684;19;9250;-65
2024/01/14 13:36:07;;;;;;;;;;;17.10;58.10;;;;;;7324354;19;10362;-65
2024/01/14 13:38:36;;;;;;;;;;;17.10;58.10;;;;;;7322920;19;9391;-65
2024/01/14 13:41:06;;;;;;;;;;;17.10;58.20;;;;;;7322693;19;9479;-65
2024/01/14 13:43:37;;;;;;;;;;;17.00;58.20;;;;;;7321593;19;9290;-65
2024/01/14 13:46:06;;;;;;;;;;;17.00;58.20;;;;;;7322706;19;9477;-65
2024/01/14 13:48:35;;;;;;;;;;;16.90;58.30;;;;;;7321665;19;9297;-65
2024/01/14 13:51:05;;;;;;;;;;;16.90;58.30;;;;;;7323713;19;9309;-65
2024/01/14 13:53:33;;;;;;;;;;;16.90;58.40;;;;;;7320875;19;9537;-65
2024/01/14 13:56:02;;;;;;;;;;;16.80;58.40;;;;;;7323523;19;9481;-65
2024/01/14 13:58:31;;;;;;;;;;;16.80;58.60;;;;;;7321449;19;9485;-65
2024/01/14 14:01:03;;;;;;;;;;;16.80;58.40;;;;;;7322431;19;9274;-65
2024/01/14 14:03:32;;;;;;;;;;;16.80;58.50;;;;;;7322391;19;9680;-65
2024/01/14 14:06:01;;;;;;;;;;;16.70;58.50;;;;;;7321419;19;9217;-65
2024/01/14 14:08:30;;;;;;;;;;;16.70;58.50;;;;;;7322860;19;10487;-65
2024/01/14 14:10:59;;;;;;;;;;;16.70;58.50;;;;;;7321894;19;9609;-65
2024/01/14 14:13:29;;;;;;;;;;;16.70;58.70;;;;;;7322976;19;11302;-65
2024/01/14 14:16:00;;;;;;;;;;;16.60;58.60;;;;;;7321658;19;9477;-65
2024/01/14 14:18:31;;;;;;;;;;;16.60;58.70;;;;;;7323178;19;9488;-65
2024/01/14 14:21:00;;;;;;;;;;;16.60;58.70;;;;;;7320348;19;10237;-65
2024/01/14 14:23:29;;;;;;;;;;;16.60;58.90;;;;;;7322576;19;9485;-65
2024/01/14 14:25:58;;;;;;;;;;;16.60;58.90;;;;;;7321043;19;10418;-65
2024/01/14 14:28:27;;;;;;;;;;;16.50;58.80;;;;;;7322182;19;9299;-65
2024/01/14 14:30:57;;;;;;;;;;;16.50;58.80;;;;;;7320616;19;9454;-65
2024/01/14 14:33:26;;;;;;;;;;;16.50;58.90;;;;;;7322007;19;9284;-65
2024/01/14 14:35:58;;;;;;;;;;;16.50;58.80;;;;;;7321260;19;9188;-65
2024/01/14 14:38:26;;;;;;;;;;;16.50;58.80;;;;;;7321608;19;9206;-65
2024/01/14 14:40:55;;;;;;;;;;;16.50;58.90;;;;;;7320814;19;9185;-66
2024/01/14 14:43:24;;;;;;;;;;;16.40;58.80;;;;;;7322565;19;9319;-66
2024/01/14 14:45:54;;;;;;;;;;;16.40;58.70;;;;;;7320409;19;9286;-65
2024/01/14 14:48:23;;;;;;;;;;;16.50;58.80;;;;;;7320692;19;9313;-65
2024/01/14 14:50:52;;;;;;;;;;;16.50;58.70;;;;;;7321178;19;10407;-65
2024/01/14 14:53:24;;;;;;;;;;;16.50;58.70;;;;;;7320586;19;9253;-65
2024/01/14 14:55:53;;;;;;;;;;;16.50;58.60;;;;;;7319641;19;9092;-65
2024/01/14 14:58:22;;;;;;;;;;;16.60;58.60;;;;;;7320731;19;10752;-65
2024/01/14 15:00:51;;;;;;;;;;;16.60;58.60;;;;;;7322007;19;9505;-65
2024/01/14 15:03:19;;;;;;;;;;;16.70;58.50;;;;;;7320685;19;9269;-65
2024/01/14 15:05:48;;;;;;;;;;;16.70;58.50;;;;;;7320908;19;9237;-65